createdAt,value
2018-07-25T00:00:34.001Z,56.10
2018-07-25T00:03:06.913Z,56.10
2018-07-25T00:05:40.512Z,55.90
2018-07-25T00:08:14.427Z,55.50
2018-07-25T00:10:50.728Z,55.50
2018-07-25T00:13:24.709Z,55.60
2018-07-25T00:15:57.582Z,55.80
2018-07-25T00:18:36.273Z,56.00
2018-07-25T00:21:09.189Z,56.50
2018-07-25T00:23:42.995Z,56.60
2018-07-25T00:26:16.597Z,56.80
2018-07-25T00:28:50.404Z,56.60
2018-07-25T00:31:26.155Z,56.50
2018-07-25T00:34:01.198Z,56.40
2018-07-25T00:36:34.566Z,56.70
2018-07-25T00:39:09.418Z,56.60
2018-07-25T00:41:45.041Z,56.60
2018-07-25T00:44:19.896Z,56.30
2018-07-25T00:49:58.336Z,56.40
2018-07-25T00:52:32.039Z,56.40
2018-07-25T00:55:05.330Z,56.20
2018-07-25T00:57:39.409Z,56.40
2018-07-25T01:00:13.353Z,56.50
2018-07-25T01:02:47.160Z,56.60
2018-07-25T01:05:20.761Z,56.50
2018-07-25T01:08:00.820Z,57.00
2018-07-25T01:10:35.541Z,57.30
2018-07-25T01:13:09.450Z,57.90
2018-07-25T01:15:43.871Z,58.30
2018-07-25T01:18:17.472Z,58.20
2018-07-25T01:38:10.035Z,59.10
2018-07-25T01:40:44.267Z,59.30
2018-07-25T01:43:18.158Z,59.20
2018-07-25T01:45:51.452Z,58.90
2018-07-25T01:48:24.542Z,58.90
2018-07-25T01:50:58.656Z,58.30
2018-07-25T01:53:31.745Z,58.60
2018-07-25T01:56:05.039Z,58.90
2018-07-25T02:01:29.608Z,59.40
2018-07-25T02:04:03.456Z,59.60
2018-07-25T02:06:38.287Z,59.50
2018-07-25T02:09:12.687Z,59.90
2018-07-25T02:11:45.698Z,59.90
2018-07-25T02:14:21.446Z,60.10
2018-07-25T02:16:55.150Z,60.30
2018-07-25T02:19:28.723Z,60.30
2018-07-25T02:22:02.557Z,59.70
2018-07-25T02:24:35.340Z,60.00
2018-07-25T02:27:09.249Z,60.30
2018-07-25T02:29:43.753Z,60.50
2018-07-25T02:49:36.028Z,59.90
2018-07-25T02:52:09.833Z,60.40
2018-07-25T02:54:43.434Z,61.00
2018-07-25T02:57:18.033Z,60.50
2018-07-25T02:59:52.480Z,61.10
2018-07-25T03:02:25.554Z,61.50
2018-07-25T03:22:17.722Z,62.30
2018-07-25T03:24:51.527Z,61.40
2018-07-25T03:27:26.462Z,61.50
2018-07-25T03:29:59.937Z,61.90
2018-07-25T03:32:32.741Z,61.60
2018-07-25T03:35:06.417Z,61.60
2018-07-25T03:37:39.842Z,61.60
2018-07-25T03:40:13.136Z,61.60
2018-07-25T03:42:46.724Z,62.20
2018-07-25T03:45:20.751Z,62.80
2018-07-25T03:47:54.146Z,63.30
2018-07-25T03:50:27.134Z,63.70
2018-07-25T03:53:01.846Z,64.00
2018-07-25T03:55:37.561Z,64.20
2018-07-25T03:58:11.008Z,64.10
2018-07-25T04:00:44.199Z,64.00
2018-07-25T04:03:17.192Z,64.00
2018-07-25T04:11:41.204Z,63.60
2018-07-25T04:14:15.420Z,63.80
2018-07-25T04:16:48.818Z,64.10
2018-07-25T04:19:22.726Z,63.50
2018-07-25T04:21:55.206Z,64.60
2018-07-25T04:24:27.984Z,64.30
2018-07-25T04:27:00.972Z,64.20
2018-07-25T04:29:34.573Z,64.40
2018-07-25T04:32:09.169Z,64.20
2018-07-25T04:34:42.208Z,64.50
2018-07-25T04:37:15.684Z,64.00
2018-07-25T05:02:54.260Z,65.20
2018-07-25T05:05:28.169Z,65.30
2018-07-25T05:08:02.589Z,64.90
2018-07-25T05:10:36.600Z,64.80
2018-07-25T05:13:11.124Z,64.00
2018-07-25T05:15:44.629Z,63.90
2018-07-25T05:18:21.910Z,63.50
2018-07-25T05:20:55.614Z,63.20
2018-07-25T05:23:32.209Z,63.40
2018-07-25T05:28:57.821Z,62.40
2018-07-25T05:31:48.323Z,62.90
2018-07-25T05:34:22.534Z,62.20
2018-07-25T05:37:02.484Z,62.70
2018-07-25T05:42:23.933Z,62.40
2018-07-25T05:44:55.716Z,62.50
2018-07-25T05:47:23.860Z,62.60
2018-07-25T05:49:51.613Z,63.00
2018-07-25T05:52:19.640Z,61.40
2018-07-25T05:54:47.428Z,61.20
2018-07-25T05:57:15.261Z,60.80
2018-07-25T05:59:43.192Z,61.70
2018-07-25T06:02:11.364Z,60.60
2018-07-25T06:04:39.409Z,60.10
2018-07-25T06:07:07.208Z,59.60
2018-07-25T06:09:34.968Z,59.10
2018-07-25T06:12:02.735Z,58.50
2018-07-25T06:14:30.484Z,57.90
2018-07-25T06:16:58.292Z,57.20
2018-07-25T06:19:26.048Z,56.60
2018-07-25T06:21:53.801Z,55.80
2018-07-25T06:24:21.576Z,55.20
2018-07-25T06:26:49.344Z,54.70
2018-07-25T06:29:17.136Z,55.30
2018-07-25T06:31:45.184Z,54.50
2018-07-25T06:34:13.073Z,55.40
2018-07-25T06:36:40.849Z,55.50
2018-07-25T06:39:10.472Z,53.40
2018-07-25T06:41:38.376Z,51.60
2018-07-25T06:44:06.360Z,51.60
2018-07-25T06:46:34.144Z,51.20
2018-07-25T06:49:02.019Z,50.40
2018-07-25T06:51:29.873Z,50.20
2018-07-25T06:53:57.605Z,50.00
2018-07-25T06:56:25.488Z,49.60
2018-07-25T06:58:53.293Z,49.20
2018-07-25T07:01:21.129Z,48.10
2018-07-25T07:03:49.205Z,47.40
2018-07-25T07:06:33.383Z,46.90
2018-07-25T07:09:01.365Z,46.50
2018-07-25T07:11:31.595Z,44.30
2018-07-25T07:13:59.682Z,44.20
2018-07-25T07:16:27.501Z,43.10
2018-07-25T07:18:55.299Z,42.70
2018-07-25T07:21:23.252Z,41.70
2018-07-25T07:23:51.017Z,41.90
2018-07-25T07:26:19.041Z,41.80
2018-07-25T07:28:46.788Z,42.10
2018-07-25T07:31:14.559Z,42.70
2018-07-25T07:33:42.345Z,41.10
2018-07-25T07:36:10.189Z,40.80
2018-07-25T07:38:38.104Z,40.70
2018-07-25T07:41:06.149Z,39.50
2018-07-25T07:43:34.336Z,38.90
2018-07-25T07:46:02.189Z,40.40
2018-07-25T07:48:30.337Z,38.10
2018-07-25T07:53:37.455Z,38.10
2018-07-25T07:56:05.309Z,37.70
2018-07-25T07:58:33.105Z,39.10
2018-07-25T08:01:00.932Z,37.70
2018-07-25T08:03:28.788Z,39.00
2018-07-25T08:05:56.549Z,38.30
2018-07-25T08:08:24.336Z,38.00
2018-07-25T08:10:52.145Z,38.50
2018-07-25T08:13:20.232Z,37.00
2018-07-25T08:15:48.049Z,36.80
2018-07-25T08:18:16.041Z,37.10
2018-07-25T08:20:44.115Z,37.60
2018-07-25T08:23:12.338Z,37.80
2018-07-25T08:25:40.345Z,37.80
2018-07-25T08:28:08.089Z,39.70
2018-07-25T08:30:38.884Z,39.80
2018-07-25T08:33:06.953Z,39.60
2018-07-25T08:35:35.021Z,39.20
2018-07-25T08:38:03.082Z,39.20
2018-07-25T08:40:40.456Z,38.70
2018-07-25T08:45:46.307Z,38.30
2018-07-25T08:48:14.229Z,37.80
2018-07-25T08:50:42.021Z,37.60
2018-07-25T08:53:09.869Z,37.70
2018-07-25T08:55:37.672Z,37.20
2018-07-25T08:58:05.472Z,37.00
2018-07-25T09:00:33.297Z,34.80
2018-07-25T09:03:01.097Z,34.60
2018-07-25T09:05:28.849Z,33.40
2018-07-25T09:07:56.596Z,34.40
2018-07-25T09:10:26.454Z,33.60
2018-07-25T09:13:00.539Z,33.60
2018-07-25T09:15:30.605Z,34.30
2018-07-25T09:17:59.648Z,33.50
2018-07-25T09:20:27.448Z,34.70
2018-07-25T09:22:55.239Z,34.30
2018-07-25T09:25:23.115Z,32.60
2018-07-25T09:27:51.004Z,32.80
2018-07-25T09:30:20.635Z,33.30
2018-07-25T09:35:32.271Z,32.30
2018-07-25T09:38:00.057Z,33.50
2018-07-25T09:40:28.030Z,33.80
2018-07-25T09:42:56.048Z,33.00
2018-07-25T09:45:23.901Z,33.20
2018-07-25T09:47:51.762Z,32.80
2018-07-25T09:50:19.598Z,33.80
2018-07-25T09:52:53.233Z,33.90
2018-07-25T09:55:21.133Z,33.80
2018-07-25T09:57:48.981Z,33.10
2018-07-25T10:03:20.377Z,33.80
2018-07-25T10:05:48.183Z,33.40
2018-07-25T10:08:16.700Z,33.20
2018-07-25T10:10:44.593Z,32.90
2018-07-25T10:13:12.501Z,33.10
2018-07-25T10:15:40.285Z,33.00
2018-07-25T10:18:08.121Z,33.90
2018-07-25T10:20:36.109Z,32.30
2018-07-25T10:23:04.263Z,31.70
2018-07-25T10:25:32.478Z,32.00
2018-07-25T10:28:00.427Z,32.80
2018-07-25T10:30:28.297Z,32.00
2018-07-25T10:35:59.221Z,32.70
2018-07-25T10:38:27.089Z,32.10
2018-07-25T10:40:55.137Z,31.80
2018-07-25T10:43:23.188Z,33.40
2018-07-25T10:46:03.953Z,33.80
2018-07-25T10:48:32.223Z,32.10
2018-07-25T10:51:00.009Z,31.40
2018-07-25T10:53:28.053Z,31.20
2018-07-25T10:55:55.914Z,31.70
2018-07-25T10:58:23.645Z,31.90
2018-07-25T11:00:51.493Z,31.70
2018-07-25T11:03:19.266Z,31.90
2018-07-25T11:05:47.029Z,32.00
2018-07-25T11:08:14.822Z,31.10
2018-07-25T11:10:42.598Z,32.30
2018-07-25T11:13:10.632Z,32.70
2018-07-25T11:15:38.408Z,31.60
2018-07-25T11:18:06.253Z,29.90
2018-07-25T11:20:34.124Z,31.50
2018-07-25T11:23:01.981Z,31.10
2018-07-25T11:25:29.705Z,30.00
2018-07-25T11:27:57.539Z,30.00
2018-07-25T11:33:22.017Z,29.80
2018-07-25T11:35:50.049Z,29.90
2018-07-25T11:38:17.875Z,29.50
2018-07-25T11:40:45.572Z,29.90
2018-07-25T11:43:13.449Z,29.40
2018-07-25T11:45:41.313Z,29.40
2018-07-25T11:48:09.308Z,30.70
2018-07-25T11:50:37.347Z,28.60
2018-07-25T11:53:05.197Z,30.00
2018-07-25T11:55:33.112Z,30.80
2018-07-25T11:58:06.310Z,29.90
2018-07-25T12:00:34.192Z,27.80
2018-07-25T12:03:02.153Z,29.70
2018-07-25T12:05:29.942Z,28.70
2018-07-25T12:08:06.014Z,28.70
2018-07-25T12:10:34.005Z,27.70
2018-07-25T12:13:02.220Z,28.20
2018-07-25T12:15:30.005Z,28.80
2018-07-25T12:17:57.905Z,30.60
2018-07-25T12:20:25.721Z,30.70
2018-07-25T12:22:53.539Z,31.90
2018-07-25T12:25:21.784Z,30.50
2018-07-25T12:27:49.858Z,30.00
2018-07-25T12:30:18.845Z,31.30
2018-07-25T12:32:46.881Z,29.90
2018-07-25T12:35:14.922Z,30.80
2018-07-25T12:37:42.832Z,30.80
2018-07-25T12:40:10.700Z,30.90
2018-07-25T12:42:38.547Z,30.00
2018-07-25T12:45:07.984Z,30.80
2018-07-25T12:47:35.821Z,30.20
2018-07-25T12:50:04.028Z,29.10
2018-07-25T12:52:31.819Z,29.60
2018-07-25T12:54:59.620Z,30.00
2018-07-25T12:57:27.401Z,28.80
2018-07-25T12:59:55.224Z,28.90
2018-07-25T13:02:23.065Z,28.80
2018-07-25T13:04:50.836Z,29.30
2018-07-25T13:07:18.589Z,29.10
2018-07-25T13:09:46.384Z,30.00
2018-07-25T13:12:14.193Z,29.50
2018-07-25T13:14:42.017Z,29.50
2018-07-25T13:17:09.874Z,29.60
2018-07-25T13:19:37.650Z,29.80
2018-07-25T13:22:05.469Z,29.90
2018-07-25T13:24:33.509Z,30.60
2018-07-25T13:27:01.300Z,29.50
2018-07-25T13:29:29.106Z,30.00
2018-07-25T13:31:56.900Z,30.80
2018-07-25T13:34:24.745Z,31.30
2018-07-25T13:36:52.639Z,31.70
2018-07-25T13:39:20.600Z,32.00
2018-07-25T13:41:48.722Z,32.50
2018-07-25T13:44:16.537Z,32.20
2018-07-25T13:46:44.322Z,31.60
2018-07-25T13:49:12.125Z,32.70
2018-07-25T13:51:39.980Z,31.40
2018-07-25T13:54:07.780Z,32.00
2018-07-25T13:56:36.644Z,31.40
2018-07-25T13:59:04.642Z,32.30
2018-07-25T14:01:32.402Z,33.80
2018-07-25T14:04:00.200Z,34.20
2018-07-25T14:06:27.976Z,35.30
2018-07-25T14:08:55.736Z,34.30
2018-07-25T14:11:23.768Z,33.70
2018-07-25T14:13:51.537Z,34.40
2018-07-25T14:16:19.316Z,34.70
2018-07-25T14:18:47.345Z,35.40
2018-07-25T14:21:17.473Z,35.10
2018-07-25T14:23:45.815Z,33.90
2018-07-25T14:26:13.585Z,31.70
2018-07-25T14:28:41.404Z,31.90
2018-07-25T14:31:09.250Z,33.00
2018-07-25T14:33:37.064Z,32.40
2018-07-25T14:36:04.984Z,31.60
2018-07-25T14:38:39.325Z,31.30
2018-07-25T14:41:07.392Z,31.80
2018-07-25T14:43:35.183Z,30.90
2018-07-25T14:46:03.013Z,31.40
2018-07-25T14:48:30.837Z,31.30
2018-07-25T14:50:58.628Z,32.50
2018-07-25T14:53:26.472Z,33.00
2018-07-25T14:55:54.441Z,32.10
2018-07-25T14:58:22.597Z,31.90
2018-07-25T15:00:50.373Z,32.30
2018-07-25T15:03:18.405Z,33.30
2018-07-25T15:05:46.413Z,32.40
2018-07-25T15:08:14.458Z,33.80
2018-07-25T15:10:42.508Z,32.80
2018-07-25T15:13:10.660Z,32.70
2018-07-25T15:15:38.457Z,33.30
2018-07-25T15:18:06.616Z,34.00
2018-07-25T15:20:34.689Z,33.00
2018-07-25T15:23:02.517Z,32.80
2018-07-25T15:25:30.316Z,33.20
2018-07-25T15:27:58.502Z,32.20
2018-07-25T15:30:26.309Z,31.60
2018-07-25T15:32:54.124Z,31.60
2018-07-25T15:35:27.631Z,31.60
2018-07-25T15:40:56.482Z,31.60
2018-07-25T15:43:33.518Z,31.60
2018-07-25T15:46:09.071Z,32.30
2018-07-25T15:48:42.957Z,33.50
2018-07-25T15:51:18.010Z,32.60
2018-07-25T15:53:53.485Z,32.90
2018-07-25T15:56:30.235Z,32.50
2018-07-25T15:59:04.113Z,32.10
2018-07-25T16:01:38.564Z,32.40
2018-07-25T16:04:19.026Z,31.90
2018-07-25T16:06:55.082Z,32.60
2018-07-25T16:09:33.324Z,32.20
2018-07-25T16:12:08.119Z,33.20
2018-07-25T16:14:46.020Z,33.40
2018-07-25T16:17:20.956Z,33.70
2018-07-25T16:19:55.893Z,34.80
2018-07-25T16:39:48.143Z,36.50
2018-07-25T16:42:21.847Z,36.60
2018-07-25T16:44:54.834Z,37.10
2018-07-25T16:47:27.924Z,37.00
2018-07-25T16:50:06.339Z,35.00
2018-07-25T16:55:35.655Z,32.80
2018-07-25T16:58:08.851Z,32.50
2018-07-25T17:03:35.412Z,33.20
2018-07-25T17:06:10.853Z,33.00
2018-07-25T17:08:45.070Z,33.60
2018-07-25T17:11:33.211Z,33.30
2018-07-25T17:14:09.458Z,33.80
2018-07-25T17:16:44.222Z,33.30
2018-07-25T17:19:18.115Z,33.50
2018-07-25T17:21:54.380Z,33.90
2018-07-25T17:33:19.745Z,33.70
2018-07-25T17:35:56.623Z,33.40
2018-07-25T17:38:30.225Z,33.30
2018-07-25T17:43:57.861Z,33.20
2018-07-25T17:46:25.724Z,32.60
2018-07-25T17:48:53.577Z,32.20
2018-07-25T17:51:21.500Z,32.20
2018-07-25T17:53:49.384Z,31.90
2018-07-25T17:56:17.201Z,32.00
2018-07-25T17:58:45.085Z,32.20
2018-07-25T18:01:13.143Z,32.30
2018-07-25T18:03:45.698Z,31.60
2018-07-25T18:06:15.224Z,31.60
2018-07-25T18:08:44.821Z,31.10
2018-07-25T18:11:16.822Z,31.10
2018-07-25T18:13:52.233Z,31.20
2018-07-25T18:16:32.253Z,31.30
2018-07-25T18:19:21.951Z,31.10
2018-07-25T18:21:53.197Z,32.30
2018-07-25T18:24:21.354Z,32.80
2018-07-25T18:26:58.271Z,33.10
2018-07-25T18:29:29.635Z,34.00
2018-07-25T18:32:03.291Z,34.40
2018-07-25T18:34:31.519Z,35.10
2018-07-25T18:37:02.201Z,35.60
2018-07-25T18:39:30.117Z,36.00
2018-07-25T18:41:58.077Z,36.30
2018-07-25T18:44:27.189Z,36.70
2018-07-25T18:46:55.000Z,37.40
2018-07-25T18:49:22.794Z,37.50
2018-07-25T18:51:50.660Z,37.80
2018-07-25T18:54:18.413Z,38.40
2018-07-25T18:56:46.309Z,39.50
2018-07-25T18:59:14.193Z,38.90
2018-07-25T19:01:42.186Z,39.30
2018-07-25T19:04:09.996Z,39.80
2018-07-25T19:06:37.792Z,40.00
2018-07-25T19:09:08.497Z,39.10
2018-07-25T19:11:36.373Z,39.60
2018-07-25T19:14:10.025Z,40.00
2018-07-25T19:16:38.062Z,40.50
2018-07-25T19:19:05.929Z,41.00
2018-07-25T19:21:34.046Z,40.60
2018-07-25T19:24:02.317Z,41.10
2018-07-25T19:26:30.529Z,41.20
2018-07-25T19:28:58.759Z,41.30
2018-07-25T19:31:26.613Z,41.90
2018-07-25T19:33:55.904Z,42.50
2018-07-25T19:36:23.931Z,42.20
2018-07-25T19:38:51.750Z,41.90
2018-07-25T19:41:19.783Z,42.40
2018-07-25T19:43:47.608Z,41.60
2018-07-25T19:46:15.642Z,42.20
2018-07-25T19:48:43.893Z,42.10
2018-07-25T19:51:12.002Z,42.00
2018-07-25T19:53:40.068Z,42.10
2018-07-25T19:56:08.728Z,42.10
2018-07-25T19:58:36.851Z,41.80
2018-07-25T20:01:05.037Z,42.00
2018-07-25T20:03:33.159Z,42.10
2018-07-25T20:06:01.275Z,42.40
2018-07-25T20:08:29.138Z,42.90
2018-07-25T20:10:56.997Z,42.90
2018-07-25T20:13:24.784Z,43.50
2018-07-25T20:15:57.444Z,43.30
2018-07-25T20:18:25.756Z,43.70
2018-07-25T20:20:54.036Z,44.10
2018-07-25T20:23:22.375Z,44.70
2018-07-25T20:25:50.446Z,45.10
2018-07-25T20:28:18.468Z,45.40
2018-07-25T20:30:46.648Z,45.30
2018-07-25T20:33:14.765Z,46.10
2018-07-25T20:35:46.810Z,46.20
2018-07-25T20:38:14.869Z,46.60
2018-07-25T20:40:42.825Z,47.10
2018-07-25T20:43:10.849Z,47.40
2018-07-25T20:45:38.936Z,47.40
2018-07-25T20:48:06.803Z,47.70
2018-07-25T20:50:34.626Z,47.80
2018-07-25T20:53:02.401Z,47.10
2018-07-25T20:55:30.248Z,46.70
2018-07-25T20:57:58.136Z,46.20
2018-07-25T21:00:31.503Z,46.10
2018-07-25T21:02:59.210Z,46.00
2018-07-25T21:05:27.029Z,46.50
2018-07-25T21:07:55.582Z,47.10
2018-07-25T21:10:23.665Z,47.40
2018-07-25T21:15:49.187Z,46.40
2018-07-25T21:18:18.713Z,46.70
2018-07-25T21:20:56.821Z,47.20
2018-07-25T21:23:24.620Z,46.30
2018-07-25T21:25:52.395Z,46.50
2018-07-25T21:28:20.229Z,46.60
2018-07-25T21:33:32.232Z,45.90
2018-07-25T21:36:00.265Z,46.00
2018-07-25T21:38:28.166Z,46.00
2018-07-25T21:40:56.009Z,46.20
2018-07-25T21:43:24.873Z,46.00
2018-07-25T21:46:11.553Z,45.80
2018-07-25T21:48:46.198Z,45.70
2018-07-25T21:54:23.507Z,45.50
2018-07-25T22:00:07.063Z,45.00
2018-07-25T22:02:42.298Z,45.00
2018-07-25T22:08:11.897Z,45.10
2018-07-25T22:10:46.455Z,45.20
2018-07-25T22:16:09.120Z,45.30
2018-07-25T22:18:43.643Z,45.20
2018-07-25T22:24:11.944Z,45.80
2018-07-25T22:26:47.973Z,45.70
2018-07-25T22:29:22.313Z,45.70
2018-07-25T22:35:00.832Z,46.50
2018-07-25T22:37:34.460Z,46.30
2018-07-25T22:40:10.213Z,46.30
2018-07-25T22:42:54.754Z,46.30
2018-07-25T22:45:29.293Z,46.30
2018-07-25T22:50:58.304Z,47.20
2018-07-25T22:53:33.137Z,47.30
2018-07-25T23:16:19.471Z,49.50
2018-07-25T23:18:54.506Z,49.60
2018-07-25T23:21:27.799Z,49.70
2018-07-25T23:24:02.221Z,49.90
2018-07-25T23:26:37.366Z,50.10
2018-07-25T23:34:58.713Z,51.40
2018-07-25T23:37:35.381Z,51.00
2018-07-25T23:40:09.912Z,51.10
2018-07-25T23:45:38.180Z,50.70
2018-07-25T23:48:15.476Z,50.70
2018-07-25T23:50:49.688Z,50.80
2018-07-25T23:53:24.007Z,50.90
2018-07-25T23:55:57.529Z,51.30
2018-07-25T23:58:31.643Z,51.40
